sensor_id;sensor_type;location;lat;lon;timestamp;P1;durP1;ratioP1;P2;durP2;ratioP2
36839;SDS011;24406;51.640;9.566;2023-04-01T00:01:46;3.17;;;1.67;;
36839;SDS011;24406;51.640;9.566;2023-04-01T00:06:48;7.88;;;2.50;;
36839;SDS011;24406;51.640;9.566;2023-04-01T00:11:49;7.03;;;2.38;;
36839;SDS011;24406;51.640;9.566;2023-04-01T00:16:52;4.93;;;2.03;;
36839;SDS011;24406;51.640;9.566;2023-04-01T00:21:54;4.50;;;2.10;;
36839;SDS011;24406;51.640;9.566;2023-04-01T00:26:55;7.68;;;2.47;;
36839;SDS011;24406;51.640;9.566;2023-04-01T00:31:58;5.97;;;2.40;;
36839;SDS011;24406;51.640;9.566;2023-04-01T00:37:00;6.03;;;1.85;;
36839;SDS011;24406;51.640;9.566;2023-04-01T00:42:02;4.13;;;1.85;;
36839;SDS011;24406;51.640;9.566;2023-04-01T00:47:05;5.07;;;1.80;;
36839;SDS011;24406;51.640;9.566;2023-04-01T00:52:08;7.80;;;2.47;;
36839;SDS011;24406;51.640;9.566;2023-04-01T00:57:13;3.90;;;1.95;;
36839;SDS011;24406;51.640;9.566;2023-04-01T01:02:19;6.05;;;1.90;;
36839;SDS011;24406;51.640;9.566;2023-04-01T01:07:23;5.05;;;1.90;;
36839;SDS011;24406;51.640;9.566;2023-04-01T01:12:29;5.88;;;1.92;;
36839;SDS011;24406;51.640;9.566;2023-04-01T01:17:38;4.28;;;1.90;;
36839;SDS011;24406;51.640;9.566;2023-04-01T01:22:49;3.58;;;1.83;;
36839;SDS011;24406;51.640;9.566;2023-04-01T01:27:56;5.30;;;2.00;;
36839;SDS011;24406;51.640;9.566;2023-04-01T01:38:28;3.85;;;1.60;;
36839;SDS011;24406;51.640;9.566;2023-04-01T01:43:39;4.07;;;1.50;;
36839;SDS011;24406;51.640;9.566;2023-04-01T01:48:42;3.72;;;1.50;;
36839;SDS011;24406;51.640;9.566;2023-04-01T01:53:46;2.90;;;1.40;;
36839;SDS011;24406;51.640;9.566;2023-04-01T01:58:50;2.45;;;1.27;;
36839;SDS011;24406;51.640;9.566;2023-04-01T02:03:55;2.65;;;1.48;;
36839;SDS011;24406;51.640;9.566;2023-04-01T02:08:59;3.75;;;1.20;;
36839;SDS011;24406;51.640;9.566;2023-04-01T02:14:04;2.53;;;1.20;;
36839;SDS011;24406;51.640;9.566;2023-04-01T02:19:07;2.15;;;1.17;;
36839;SDS011;24406;51.640;9.566;2023-04-01T02:24:12;4.93;;;1.40;;
36839;SDS011;24406;51.640;9.566;2023-04-01T02:29:15;3.05;;;1.42;;
36839;SDS011;24406;51.640;9.566;2023-04-01T02:34:18;3.72;;;1.75;;
36839;SDS011;24406;51.640;9.566;2023-04-01T02:39:21;5.38;;;1.63;;
36839;SDS011;24406;51.640;9.566;2023-04-01T02:44:23;2.65;;;1.40;;
36839;SDS011;24406;51.640;9.566;2023-04-01T02:49:24;3.60;;;1.50;;
36839;SDS011;24406;51.640;9.566;2023-04-01T02:54:27;2.00;;;1.10;;
36839;SDS011;24406;51.640;9.566;2023-04-01T02:59:29;3.17;;;1.50;;
36839;SDS011;24406;51.640;9.566;2023-04-01T03:04:30;5.05;;;1.40;;
36839;SDS011;24406;51.640;9.566;2023-04-01T03:09:33;2.33;;;1.40;;
36839;SDS011;24406;51.640;9.566;2023-04-01T03:14:34;2.33;;;1.60;;
36839;SDS011;24406;51.640;9.566;2023-04-01T03:19:36;2.60;;;1.55;;
36839;SDS011;24406;51.640;9.566;2023-04-01T03:24:42;4.13;;;1.52;;
36839;SDS011;24406;51.640;9.566;2023-04-01T03:29:45;4.45;;;1.73;;
36839;SDS011;24406;51.640;9.566;2023-04-01T03:34:47;3.85;;;1.70;;
36839;SDS011;24406;51.640;9.566;2023-04-01T03:39:50;2.90;;;1.58;;
36839;SDS011;24406;51.640;9.566;2023-04-01T03:44:51;6.55;;;2.00;;
36839;SDS011;24406;51.640;9.566;2023-04-01T03:49:53;3.50;;;2.00;;
36839;SDS011;24406;51.640;9.566;2023-04-01T03:54:56;6.75;;;1.95;;
36839;SDS011;24406;51.640;9.566;2023-04-01T03:59:58;3.28;;;1.60;;
36839;SDS011;24406;51.640;9.566;2023-04-01T04:05:00;4.65;;;2.08;;
36839;SDS011;24406;51.640;9.566;2023-04-01T04:10:04;2.85;;;1.60;;
36839;SDS011;24406;51.640;9.566;2023-04-01T04:15:07;2.83;;;1.77;;
36839;SDS011;24406;51.640;9.566;2023-04-01T04:20:09;3.08;;;1.55;;
36839;SDS011;24406;51.640;9.566;2023-04-01T04:25:12;4.50;;;1.60;;
36839;SDS011;24406;51.640;9.566;2023-04-01T04:30:14;4.50;;;2.10;;
36839;SDS011;24406;51.640;9.566;2023-04-01T04:35:16;2.40;;;1.60;;
36839;SDS011;24406;51.640;9.566;2023-04-01T04:40:20;6.13;;;1.90;;
36839;SDS011;24406;51.640;9.566;2023-04-01T04:45:21;3.17;;;1.63;;
36839;SDS011;24406;51.640;9.566;2023-04-01T04:50:28;4.15;;;1.83;;
36839;SDS011;24406;51.640;9.566;2023-04-01T04:55:31;1.73;;;1.63;;
36839;SDS011;24406;51.640;9.566;2023-04-01T05:00:51;4.20;;;1.40;;
36839;SDS011;24406;51.640;9.566;2023-04-01T05:05:58;4.88;;;1.90;;
36839;SDS011;24406;51.640;9.566;2023-04-01T05:11:01;5.18;;;1.73;;
36839;SDS011;24406;51.640;9.566;2023-04-01T05:16:07;3.28;;;1.55;;
36839;SDS011;24406;51.640;9.566;2023-04-01T05:21:13;5.25;;;1.90;;
36839;SDS011;24406;51.640;9.566;2023-04-01T05:26:16;3.83;;;1.48;;
36839;SDS011;24406;51.640;9.566;2023-04-01T05:31:17;1.60;;;1.30;;
36839;SDS011;24406;51.640;9.566;2023-04-01T05:36:22;2.67;;;1.33;;
36839;SDS011;24406;51.640;9.566;2023-04-01T05:41:25;4.53;;;1.50;;
36839;SDS011;24406;51.640;9.566;2023-04-01T05:46:27;6.55;;;1.58;;
36839;SDS011;24406;51.640;9.566;2023-04-01T05:51:34;2.10;;;1.20;;
36839;SDS011;24406;51.640;9.566;2023-04-01T05:56:37;4.28;;;1.50;;
36839;SDS011;24406;51.640;9.566;2023-04-01T06:01:38;2.05;;;1.42;;
36839;SDS011;24406;51.640;9.566;2023-04-01T06:06:40;5.22;;;1.40;;
36839;SDS011;24406;51.640;9.566;2023-04-01T06:11:51;3.20;;;1.40;;
36839;SDS011;24406;51.640;9.566;2023-04-01T06:17:02;3.72;;;1.35;;
36839;SDS011;24406;51.640;9.566;2023-04-01T06:22:17;4.20;;;1.50;;
36839;SDS011;24406;51.640;9.566;2023-04-01T06:27:33;3.85;;;1.80;;
36839;SDS011;24406;51.640;9.566;2023-04-01T06:38:10;3.30;;;1.42;;
36839;SDS011;24406;51.640;9.566;2023-04-01T06:43:33;4.53;;;1.42;;
36839;SDS011;24406;51.640;9.566;2023-04-01T06:49:12;2.60;;;1.45;;
36839;SDS011;24406;51.640;9.566;2023-04-01T06:54:55;2.63;;;1.40;;
36839;SDS011;24406;51.640;9.566;2023-04-01T07:00:27;1.77;;;1.10;;
36839;SDS011;24406;51.640;9.566;2023-04-01T07:05:31;3.00;;;1.40;;
36839;SDS011;24406;51.640;9.566;2023-04-01T07:10:34;5.03;;;1.63;;
36839;SDS011;24406;51.640;9.566;2023-04-01T07:16:03;2.30;;;1.00;;
36839;SDS011;24406;51.640;9.566;2023-04-01T07:21:15;3.25;;;1.20;;
36839;SDS011;24406;51.640;9.566;2023-04-01T07:26:23;1.30;;;1.20;;
36839;SDS011;24406;51.640;9.566;2023-04-01T07:31:45;2.22;;;1.55;;
36839;SDS011;24406;51.640;9.566;2023-04-01T07:36:52;3.47;;;1.35;;
36839;SDS011;24406;51.640;9.566;2023-04-01T07:41:57;1.70;;;1.15;;
36839;SDS011;24406;51.640;9.566;2023-04-01T07:47:08;2.30;;;1.13;;
36839;SDS011;24406;51.640;9.566;2023-04-01T07:52:16;1.48;;;1.00;;
36839;SDS011;24406;51.640;9.566;2023-04-01T07:57:27;1.83;;;1.02;;
36839;SDS011;24406;51.640;9.566;2023-04-01T08:02:37;2.08;;;1.05;;
36839;SDS011;24406;51.640;9.566;2023-04-01T08:07:48;1.48;;;1.23;;
36839;SDS011;24406;51.640;9.566;2023-04-01T08:13:13;2.10;;;1.40;;
36839;SDS011;24406;51.640;9.566;2023-04-01T08:18:40;3.58;;;1.05;;
36839;SDS011;24406;51.640;9.566;2023-04-01T08:23:46;2.57;;;1.53;;
36839;SDS011;24406;51.640;9.566;2023-04-01T08:28:50;8.25;;;2.45;;
36839;SDS011;24406;51.640;9.566;2023-04-01T08:33:59;9.38;;;4.25;;
36839;SDS011;24406;51.640;9.566;2023-04-01T08:39:04;2.83;;;1.42;;
36839;SDS011;24406;51.640;9.566;2023-04-01T08:44:16;1.80;;;0.90;;
36839;SDS011;24406;51.640;9.566;2023-04-01T08:49:36;1.25;;;0.80;;
36839;SDS011;24406;51.640;9.566;2023-04-01T09:00:47;1.60;;;1.20;;
36839;SDS011;24406;51.640;9.566;2023-04-01T09:06:12;2.28;;;1.17;;
36839;SDS011;24406;51.640;9.566;2023-04-01T09:11:28;2.72;;;1.13;;
36839;SDS011;24406;51.640;9.566;2023-04-01T09:22:42;1.45;;;1.08;;
36839;SDS011;24406;51.640;9.566;2023-04-01T09:27:55;2.25;;;1.25;;
36839;SDS011;24406;51.640;9.566;2023-04-01T09:38:52;1.35;;;1.23;;
36839;SDS011;24406;51.640;9.566;2023-04-01T09:44:00;4.38;;;2.08;;
36839;SDS011;24406;51.640;9.566;2023-04-01T09:49:17;7.28;;;3.38;;
36839;SDS011;24406;51.640;9.566;2023-04-01T09:54:31;2.95;;;1.55;;
36839;SDS011;24406;51.640;9.566;2023-04-01T09:59:58;2.25;;;1.60;;
36839;SDS011;24406;51.640;9.566;2023-04-01T10:05:33;4.13;;;0.85;;
36839;SDS011;24406;51.640;9.566;2023-04-01T10:11:02;2.10;;;1.15;;
36839;SDS011;24406;51.640;9.566;2023-04-01T10:16:26;1.95;;;1.00;;
36839;SDS011;24406;51.640;9.566;2023-04-01T10:21:53;1.35;;;1.10;;
36839;SDS011;24406;51.640;9.566;2023-04-01T10:27:11;2.13;;;1.40;;
36839;SDS011;24406;51.640;9.566;2023-04-01T10:38:46;3.03;;;2.58;;
36839;SDS011;24406;51.640;9.566;2023-04-01T10:49:54;4.18;;;1.35;;
36839;SDS011;24406;51.640;9.566;2023-04-01T11:01:27;2.80;;;0.85;;
36839;SDS011;24406;51.640;9.566;2023-04-01T11:12:40;1.48;;;0.80;;
36839;SDS011;24406;51.640;9.566;2023-04-01T11:18:06;1.48;;;0.70;;
36839;SDS011;24406;51.640;9.566;2023-04-01T11:23:34;1.83;;;1.25;;
36839;SDS011;24406;51.640;9.566;2023-04-01T11:28:47;1.25;;;0.90;;
36839;SDS011;24406;51.640;9.566;2023-04-01T11:33:57;1.73;;;0.82;;
36839;SDS011;24406;51.640;9.566;2023-04-01T11:39:17;1.23;;;0.60;;
36839;SDS011;24406;51.640;9.566;2023-04-01T11:44:36;1.15;;;0.80;;
36839;SDS011;24406;51.640;9.566;2023-04-01T11:49:51;1.50;;;0.80;;
36839;SDS011;24406;51.640;9.566;2023-04-01T11:55:24;0.70;;;0.70;;
36839;SDS011;24406;51.640;9.566;2023-04-01T12:00:32;0.77;;;0.60;;
36839;SDS011;24406;51.640;9.566;2023-04-01T12:05:40;1.67;;;0.93;;
36839;SDS011;24406;51.640;9.566;2023-04-01T12:10:45;3.08;;;1.52;;
36839;SDS011;24406;51.640;9.566;2023-04-01T12:15:54;1.50;;;1.40;;
36839;SDS011;24406;51.640;9.566;2023-04-01T12:21:05;1.20;;;1.10;;
36839;SDS011;24406;51.640;9.566;2023-04-01T12:26:19;0.90;;;0.73;;
36839;SDS011;24406;51.640;9.566;2023-04-01T12:31:31;1.40;;;1.20;;
36839;SDS011;24406;51.640;9.566;2023-04-01T12:36:44;1.23;;;1.20;;
36839;SDS011;24406;51.640;9.566;2023-04-01T12:41:55;1.30;;;0.90;;
36839;SDS011;24406;51.640;9.566;2023-04-01T12:47:07;2.95;;;1.13;;
36839;SDS011;24406;51.640;9.566;2023-04-01T12:52:20;0.88;;;0.85;;
36839;SDS011;24406;51.640;9.566;2023-04-01T13:03:02;1.95;;;0.85;;
36839;SDS011;24406;51.640;9.566;2023-04-01T13:08:27;2.90;;;0.80;;
36839;SDS011;24406;51.640;9.566;2023-04-01T13:13:44;0.60;;;0.60;;
36839;SDS011;24406;51.640;9.566;2023-04-01T13:19:08;2.15;;;0.70;;
36839;SDS011;24406;51.640;9.566;2023-04-01T13:24:16;0.70;;;0.70;;
36839;SDS011;24406;51.640;9.566;2023-04-01T13:29:25;1.42;;;1.13;;
36839;SDS011;24406;51.640;9.566;2023-04-01T13:34:39;2.05;;;0.80;;
36839;SDS011;24406;51.640;9.566;2023-04-01T13:39:56;0.70;;;0.70;;
36839;SDS011;24406;51.640;9.566;2023-04-01T13:45:09;0.88;;;0.60;;
36839;SDS011;24406;51.640;9.566;2023-04-01T13:50:17;1.40;;;1.13;;
36839;SDS011;24406;51.640;9.566;2023-04-01T13:55:32;13.95;;;10.88;;
36839;SDS011;24406;51.640;9.566;2023-04-01T14:00:46;2.10;;;2.00;;
36839;SDS011;24406;51.640;9.566;2023-04-01T14:06:06;1.05;;;0.50;;
36839;SDS011;24406;51.640;9.566;2023-04-01T14:11:16;3.60;;;0.85;;
36839;SDS011;24406;51.640;9.566;2023-04-01T14:16:25;0.90;;;0.90;;
36839;SDS011;24406;51.640;9.566;2023-04-01T14:21:38;1.90;;;0.98;;
36839;SDS011;24406;51.640;9.566;2023-04-01T14:32:11;0.88;;;0.88;;
36839;SDS011;24406;51.640;9.566;2023-04-01T14:37:17;1.27;;;0.88;;
36839;SDS011;24406;51.640;9.566;2023-04-01T14:42:48;0.73;;;0.73;;
36839;SDS011;24406;51.640;9.566;2023-04-01T14:47:58;2.22;;;1.75;;
36839;SDS011;24406;51.640;9.566;2023-04-01T14:53:11;3.50;;;2.88;;
36839;SDS011;24406;51.640;9.566;2023-04-01T14:58:15;2.20;;;2.00;;
36839;SDS011;24406;51.640;9.566;2023-04-01T15:03:19;1.40;;;1.30;;
36839;SDS011;24406;51.640;9.566;2023-04-01T15:08:24;1.27;;;0.68;;
36839;SDS011;24406;51.640;9.566;2023-04-01T15:13:36;1.65;;;1.00;;
36839;SDS011;24406;51.640;9.566;2023-04-01T15:18:51;8.02;;;4.40;;
36839;SDS011;24406;51.640;9.566;2023-04-01T15:23:59;0.60;;;0.60;;
36839;SDS011;24406;51.640;9.566;2023-04-01T15:29:15;1.63;;;0.40;;
36839;SDS011;24406;51.640;9.566;2023-04-01T15:34:41;0.50;;;0.50;;
36839;SDS011;24406;51.640;9.566;2023-04-01T15:39:51;2.40;;;2.20;;
36839;SDS011;24406;51.640;9.566;2023-04-01T15:45:00;0.93;;;0.93;;
36839;SDS011;24406;51.640;9.566;2023-04-01T15:50:21;1.67;;;0.90;;
36839;SDS011;24406;51.640;9.566;2023-04-01T15:55:31;1.20;;;1.20;;
36839;SDS011;24406;51.640;9.566;2023-04-01T16:00:42;1.10;;;1.10;;
36839;SDS011;24406;51.640;9.566;2023-04-01T16:05:52;4.38;;;3.92;;
36839;SDS011;24406;51.640;9.566;2023-04-01T16:11:04;5.85;;;4.75;;
36839;SDS011;24406;51.640;9.566;2023-04-01T16:16:17;8.38;;;7.50;;
36839;SDS011;24406;51.640;9.566;2023-04-01T16:21:27;23.10;;;20.98;;
36839;SDS011;24406;51.640;9.566;2023-04-01T16:26:37;16.80;;;14.98;;
36839;SDS011;24406;51.640;9.566;2023-04-01T16:31:45;20.20;;;18.13;;
36839;SDS011;24406;51.640;9.566;2023-04-01T16:41:52;35.78;;;28.13;;
36839;SDS011;24406;51.640;9.566;2023-04-01T16:47:11;4.15;;;3.75;;
36839;SDS011;24406;51.640;9.566;2023-04-01T16:52:14;27.45;;;24.75;;
36839;SDS011;24406;51.640;9.566;2023-04-01T16:57:18;1.10;;;1.00;;
36839;SDS011;24406;51.640;9.566;2023-04-01T17:02:23;6.40;;;5.80;;
36839;SDS011;24406;51.640;9.566;2023-04-01T17:07:30;0.95;;;0.60;;
36839;SDS011;24406;51.640;9.566;2023-04-01T17:12:42;10.00;;;9.23;;
36839;SDS011;24406;51.640;9.566;2023-04-01T17:17:49;4.40;;;3.97;;
36839;SDS011;24406;51.640;9.566;2023-04-01T17:22:54;3.00;;;2.80;;
36839;SDS011;24406;51.640;9.566;2023-04-01T17:27:59;2.90;;;2.70;;
36839;SDS011;24406;51.640;9.566;2023-04-01T17:33:20;3.60;;;2.77;;
36839;SDS011;24406;51.640;9.566;2023-04-01T17:38:38;3.65;;;3.35;;
36839;SDS011;24406;51.640;9.566;2023-04-01T17:43:47;7.63;;;6.82;;
36839;SDS011;24406;51.640;9.566;2023-04-01T17:48:54;16.50;;;10.65;;
36839;SDS011;24406;51.640;9.566;2023-04-01T17:54:05;38.30;;;34.42;;
36839;SDS011;24406;51.640;9.566;2023-04-01T17:59:16;41.72;;;37.53;;
36839;SDS011;24406;51.640;9.566;2023-04-01T18:04:28;13.23;;;12.10;;
36839;SDS011;24406;51.640;9.566;2023-04-01T18:09:41;2.30;;;2.10;;
36839;SDS011;24406;51.640;9.566;2023-04-01T18:14:50;2.30;;;2.13;;
36839;SDS011;24406;51.640;9.566;2023-04-01T18:20:11;3.33;;;1.90;;
36839;SDS011;24406;51.640;9.566;2023-04-01T18:25:21;5.57;;;5.18;;
36839;SDS011;24406;51.640;9.566;2023-04-01T18:30:26;5.80;;;5.30;;
36839;SDS011;24406;51.640;9.566;2023-04-01T18:35:34;3.38;;;1.60;;
36839;SDS011;24406;51.640;9.566;2023-04-01T18:40:47;2.63;;;2.00;;
36839;SDS011;24406;51.640;9.566;2023-04-01T18:45:51;2.35;;;1.65;;
36839;SDS011;24406;51.640;9.566;2023-04-01T18:50:57;2.60;;;2.28;;
36839;SDS011;24406;51.640;9.566;2023-04-01T18:56:02;1.27;;;1.20;;
36839;SDS011;24406;51.640;9.566;2023-04-01T19:01:07;5.70;;;2.40;;
36839;SDS011;24406;51.640;9.566;2023-04-01T19:06:17;14.20;;;11.48;;
36839;SDS011;24406;51.640;9.566;2023-04-01T19:11:26;10.23;;;9.23;;
36839;SDS011;24406;51.640;9.566;2023-04-01T19:16:37;4.82;;;4.15;;
36839;SDS011;24406;51.640;9.566;2023-04-01T19:21:52;4.43;;;4.03;;
36839;SDS011;24406;51.640;9.566;2023-04-01T19:26:57;2.83;;;2.05;;
36839;SDS011;24406;51.640;9.566;2023-04-01T19:32:05;3.35;;;2.53;;
36839;SDS011;24406;51.640;9.566;2023-04-01T19:37:18;2.08;;;1.80;;
36839;SDS011;24406;51.640;9.566;2023-04-01T19:42:25;1.70;;;1.60;;
36839;SDS011;24406;51.640;9.566;2023-04-01T19:47:37;1.20;;;1.10;;
36839;SDS011;24406;51.640;9.566;2023-04-01T19:52:45;1.70;;;1.60;;
36839;SDS011;24406;51.640;9.566;2023-04-01T19:57:50;1.48;;;1.38;;
36839;SDS011;24406;51.640;9.566;2023-04-01T20:02:56;2.00;;;1.90;;
36839;SDS011;24406;51.640;9.566;2023-04-01T20:08:09;3.58;;;3.28;;
36839;SDS011;24406;51.640;9.566;2023-04-01T20:13:17;2.85;;;2.00;;
36839;SDS011;24406;51.640;9.566;2023-04-01T20:18:25;3.50;;;2.83;;
36839;SDS011;24406;51.640;9.566;2023-04-01T20:23:38;2.65;;;2.45;;
36839;SDS011;24406;51.640;9.566;2023-04-01T20:28:42;3.33;;;2.95;;
36839;SDS011;24406;51.640;9.566;2023-04-01T20:39:37;1.83;;;1.73;;
36839;SDS011;24406;51.640;9.566;2023-04-01T20:44:55;2.80;;;2.60;;
36839;SDS011;24406;51.640;9.566;2023-04-01T20:50:04;1.88;;;1.77;;
36839;SDS011;24406;51.640;9.566;2023-04-01T20:55:19;2.58;;;2.38;;
36839;SDS011;24406;51.640;9.566;2023-04-01T21:00:28;1.40;;;1.20;;
36839;SDS011;24406;51.640;9.566;2023-04-01T21:05:42;1.08;;;1.08;;
36839;SDS011;24406;51.640;9.566;2023-04-01T21:10:52;1.25;;;1.15;;
36839;SDS011;24406;51.640;9.566;2023-04-01T21:16:07;1.50;;;1.40;;
36839;SDS011;24406;51.640;9.566;2023-04-01T21:21:18;1.10;;;1.10;;
36839;SDS011;24406;51.640;9.566;2023-04-01T21:26:29;0.80;;;0.80;;
36839;SDS011;24406;51.640;9.566;2023-04-01T21:31:45;0.80;;;0.80;;
36839;SDS011;24406;51.640;9.566;2023-04-01T21:36:58;1.08;;;1.02;;
36839;SDS011;24406;51.640;9.566;2023-04-01T21:42:12;0.77;;;0.77;;
36839;SDS011;24406;51.640;9.566;2023-04-01T21:47:23;1.17;;;1.08;;
36839;SDS011;24406;51.640;9.566;2023-04-01T21:52:47;0.80;;;0.80;;
36839;SDS011;24406;51.640;9.566;2023-04-01T21:58:10;2.45;;;1.02;;
36839;SDS011;24406;51.640;9.566;2023-04-01T22:09:07;1.10;;;1.10;;
36839;SDS011;24406;51.640;9.566;2023-04-01T22:14:14;0.80;;;0.80;;
36839;SDS011;24406;51.640;9.566;2023-04-01T22:19:20;1.20;;;1.20;;
36839;SDS011;24406;51.640;9.566;2023-04-01T22:24:25;1.45;;;1.35;;
36839;SDS011;24406;51.640;9.566;2023-04-01T22:29:35;1.13;;;1.13;;
36839;SDS011;24406;51.640;9.566;2023-04-01T22:34:41;1.15;;;1.15;;
36839;SDS011;24406;51.640;9.566;2023-04-01T22:39:52;1.63;;;1.30;;
36839;SDS011;24406;51.640;9.566;2023-04-01T22:45:05;1.40;;;1.30;;
36839;SDS011;24406;51.640;9.566;2023-04-01T22:50:13;1.40;;;1.30;;
36839;SDS011;24406;51.640;9.566;2023-04-01T22:55:20;1.27;;;1.20;;
36839;SDS011;24406;51.640;9.566;2023-04-01T23:00:25;1.45;;;1.35;;
36839;SDS011;24406;51.640;9.566;2023-04-01T23:05:29;1.77;;;1.67;;
36839;SDS011;24406;51.640;9.566;2023-04-01T23:10:35;1.42;;;1.33;;
36839;SDS011;24406;51.640;9.566;2023-04-01T23:15:42;1.75;;;1.65;;
36839;SDS011;24406;51.640;9.566;2023-04-01T23:20:56;1.80;;;1.70;;
36839;SDS011;24406;51.640;9.566;2023-04-01T23:26:09;1.42;;;1.30;;
36839;SDS011;24406;51.640;9.566;2023-04-01T23:31:25;1.52;;;1.42;;
36839;SDS011;24406;51.640;9.566;2023-04-01T23:36:28;1.40;;;1.30;;
36839;SDS011;24406;51.640;9.566;2023-04-01T23:41:30;1.42;;;1.33;;
36839;SDS011;24406;51.640;9.566;2023-04-01T23:46:34;1.77;;;1.38;;
36839;SDS011;24406;51.640;9.566;2023-04-01T23:51:37;1.00;;;1.00;;
36839;SDS011;24406;51.640;9.566;2023-04-01T23:56:41;1.10;;;1.10;;
